Map

Track Data

SID SEASON NUMBER BASIN SUBBASIN NAME ISO_TIME NATURE LAT LON WMO_WIND WMO_PRES WMO_AGENCY TRACK_TYPE DIST2LAND LANDFALL IFLAG USA_AGENCY USA_ATCF_ID USA_LAT USA_LON USA_RECORD USA_STATUS USA_WIND USA_PRES USA_SSHS USA_R34_NE USA_R34_SE USA_R34_SW USA_R34_NW USA_R50_NE USA_R50_SE USA_R50_SW USA_R50_NW USA_R64_NE USA_R64_SE USA_R64_SW USA_R64_NW USA_POCI USA_ROCI USA_RMW USA_EYE TOKYO_LAT TOKYO_LON TOKYO_GRADE TOKYO_WIND TOKYO_PRES TOKYO_R50_DIR TOKYO_R50_LONG TOKYO_R50_SHORT TOKYO_R30_DIR TOKYO_R30_LONG TOKYO_R30_SHORT TOKYO_LAND CMA_LAT CMA_LON CMA_CAT CMA_WIND CMA_PRES HKO_LAT HKO_LON HKO_CAT HKO_WIND HKO_PRES NEWDELHI_LAT NEWDELHI_LON NEWDELHI_GRADE NEWDELHI_WIND NEWDELHI_PRES NEWDELHI_CI NEWDELHI_DP NEWDELHI_POCI REUNION_LAT REUNION_LON REUNION_TYPE REUNION_WIND REUNION_PRES REUNION_TNUM REUNION_CI REUNION_RMW REUNION_R34_NE REUNION_R34_SE REUNION_R34_SW REUNION_R34_NW REUNION_R50_NE REUNION_R50_SE REUNION_R50_SW REUNION_R50_NW REUNION_R64_NE REUNION_R64_SE REUNION_R64_SW REUNION_R64_NW BOM_LAT BOM_LON BOM_TYPE BOM_WIND BOM_PRES BOM_TNUM BOM_CI BOM_RMW BOM_R34_NE BOM_R34_SE BOM_R34_SW BOM_R34_NW BOM_R50_NE BOM_R50_SE BOM_R50_SW BOM_R50_NW BOM_R64_NE BOM_R64_SE BOM_R64_SW BOM_R64_NW BOM_ROCI BOM_POCI BOM_EYE BOM_POS_METHOD BOM_PRES_METHOD NADI_LAT NADI_LON NADI_CAT NADI_WIND NADI_PRES WELLINGTON_LAT WELLINGTON_LON WELLINGTON_WIND WELLINGTON_PRES DS824_LAT DS824_LON DS824_STAGE DS824_WIND DS824_PRES TD9636_LAT TD9636_LON TD9636_STAGE TD9636_WIND TD9636_PRES TD9635_LAT TD9635_LON TD9635_WIND TD9635_PRES TD9635_ROCI NEUMANN_LAT NEUMANN_LON NEUMANN_CLASS NEUMANN_WIND NEUMANN_PRES MLC_LAT MLC_LON MLC_CLASS MLC_WIND MLC_PRES USA_GUST BOM_GUST BOM_GUST_PER REUNION_GUST REUNION_GUST_PER USA_SEAHGT USA_SEARAD_NE USA_SEARAD_SE USA_SEARAD_SW USA_SEARAD_NW STORM_SPEED STORM_DIR
1958267N18309 1958 90 NA NA ILSA 1958-09-24 06:00:00 TS 17.5000 -51.5000 50 hurdat_atl main 1276 1223 O_____________ hurdat_atl AL091958 17.5000 -51.5000 TS 50 0 13 278
1958267N18309 1958 90 NA NA ILSA 1958-09-24 09:00:00 TS 17.5980 -52.1974 main 1223 1173 P_____________ AL091958 17.5980 -52.1974 TS 50 0 14 279
1958267N18309 1958 90 NA NA ILSA 1958-09-24 12:00:00 TS 17.7000 -52.9000 50 hurdat_atl main 1173 1125 O_____________ hurdat_atl AL091958 17.7000 -52.9000 TS 50 0 14 279
1958267N18309 1958 90 NA NA ILSA 1958-09-24 15:00:00 TS 17.8073 -53.6075 main 1125 1081 P_____________ AL091958 17.8073 -53.6075 TS 50 0 13 279
1958267N18309 1958 90 NA NA ILSA 1958-09-24 18:00:00 TS 17.9000 -54.3000 50 998 hurdat_atl main 1081 1039 O_____________ hurdat_atl AL091958 17.9000 -54.3000 TS 50 998 0 13 277
1958267N18309 1958 90 NA NA ILSA 1958-09-24 21:00:00 TS 17.9573 -54.9651 main 1041 1003 P_____________ AL091958 17.9573 -54.9651 TS 52 0 12 275
1958267N18309 1958 90 NA NA ILSA 1958-09-25 00:00:00 TS 18.0000 -55.6000 55 hurdat_atl main 1003 966 O_____________ hurdat_atl AL091958 18.0000 -55.6000 TS 55 0 12 274
1958267N18309 1958 90 NA NA ILSA 1958-09-25 03:00:00 TS 18.0422 -56.2001 main 966 929 P_____________ AL091958 18.0422 -56.2001 TS 57 0 11 275
1958267N18309 1958 90 NA NA ILSA 1958-09-25 06:00:00 TS 18.1000 -56.8000 60 hurdat_atl main 929 866 O_____________ hurdat_atl AL091958 18.1000 -56.8000 TS 60 0 12 277
1958267N18309 1958 90 NA NA ILSA 1958-09-25 09:00:00 TS 18.1849 -57.4501 main 855 791 P_____________ AL091958 18.1849 -57.4501 TS 62 0 13 279
1958267N18309 1958 90 NA NA ILSA 1958-09-25 12:00:00 TS 18.3000 -58.1000 65 986 hurdat_atl main 791 728 O_____________ hurdat_atl AL091958 18.3000 -58.1000 HU 65 986 1 13 281
1958267N18309 1958 90 NA NA ILSA 1958-09-25 15:00:00 TS 18.4350 -58.7450 main 728 664 P_____________ AL091958 18.4350 -58.7450 HU 67 983 1 12 285
1958267N18309 1958 90 NA NA ILSA 1958-09-25 18:00:00 TS 18.6000 -59.3000 70 980 hurdat_atl main 664 623 O_____________ hurdat_atl AL091958 18.6000 -59.3000 HU 70 980 1 10 291
1958267N18309 1958 90 NA NA ILSA 1958-09-25 21:00:00 TS 18.7922 -59.7026 main 623 593 P_____________ AL091958 18.7922 -59.7026 HU 75 975 1 8 301
1958267N18309 1958 90 NA NA ILSA 1958-09-26 00:00:00 TS 19.0000 -60.0000 80 hurdat_atl main 593 565 I_____________ hurdat_atl AL091958 19.0000 -60.0000 HU 80 971 1 7 307
1958267N18309 1958 90 NA NA ILSA 1958-09-26 03:00:00 TS 19.2074 -60.2800 main 565 548 P_____________ AL091958 19.2074 -60.2800 HU 85 966 2 6 310
1958267N18309 1958 90 NA NA ILSA 1958-09-26 06:00:00 TS 19.4000 -60.5000 90 962 hurdat_atl main 548 529 O_____________ hurdat_atl AL091958 19.4000 -60.5000 HU 90 962 2 5 314
1958267N18309 1958 90 NA NA ILSA 1958-09-26 09:00:00 TS 19.5574 -60.6651 main 532 525 P_____________ AL091958 19.5574 -60.6651 HU 92 959 2 4 317
1958267N18309 1958 90 NA NA ILSA 1958-09-26 12:00:00 TS 19.7000 -60.8000 95 956 hurdat_atl main 525 514 O_____________ hurdat_atl AL091958 19.7000 -60.8000 HU 95 956 2 4 316
1958267N18309 1958 90 NA NA ILSA 1958-09-26 15:00:00 TS 19.8425 -60.9575 main 508 501 P_____________ AL091958 19.8425 -60.9575 HU 95 956 2 4 317
1958267N18309 1958 90 NA NA ILSA 1958-09-26 18:00:00 TS 20.0000 -61.1000 95 957 hurdat_atl main 505 499 O_____________ hurdat_atl AL091958 20.0000 -61.1000 HU 95 957 2 4 324
1958267N18309 1958 90 NA NA ILSA 1958-09-26 21:00:00 TS 20.1850 -61.2225 main 503 498 P_____________ AL091958 20.1850 -61.2225 HU 92 961 2 4 335
1958267N18309 1958 90 NA NA ILSA 1958-09-27 00:00:00 TS 20.4000 -61.3000 90 966 hurdat_atl main 503 503 O_____________ hurdat_atl AL091958 20.4000 -61.3000 HU 90 966 2 4 344
1958267N18309 1958 90 NA NA ILSA 1958-09-27 03:00:00 TS 20.5970 -61.3478 main 513 513 P_____________ AL091958 20.5970 -61.3478 HU 80 974 1 5 2
1958267N18309 1958 90 NA NA ILSA 1958-09-27 06:00:00 TS 20.9000 -61.3000 70 hurdat_atl main 529 529 I_____________ hurdat_atl AL091958 20.9000 -61.3000 HU 70 983 1 7 13
1958267N18309 1958 90 NA NA ILSA 1958-09-27 08:00:00 TS 21.2000 -61.2000 65 990 hurdat_atl main 556 556 O_____________ hurdat_atl AL091958 21.2000 -61.2000 R HU 65 990 1 10 15
1958267N18309 1958 90 NA NA ILSA 1958-09-27 09:00:00 TS 21.3605 -61.1640 main 569 569 P_____________ AL091958 21.3605 -61.1640 HU 65 1 11 8
1958267N18309 1958 90 NA NA ILSA 1958-09-27 12:00:00 TS 21.9000 -61.1000 65 hurdat_atl main 611 611 O_____________ hurdat_atl AL091958 21.9000 -61.1000 HU 65 1 12 6
1958267N18309 1958 90 NA NA ILSA 1958-09-27 15:00:00 TS 22.5272 -61.0314 main 663 663 P_____________ AL091958 22.5272 -61.0314 HU 65 1 13 4
1958267N18309 1958 90 NA NA ILSA 1958-09-27 18:00:00 TS 23.2000 -61.0000 65 hurdat_atl main 718 718 O_____________ hurdat_atl AL091958 23.2000 -61.0000 HU 65 1 13 0
1958267N18309 1958 90 NA NA ILSA 1958-09-27 21:00:00 TS 23.8425 -61.0127 main 769 769 P_____________ AL091958 23.8425 -61.0127 HU 65 1 13 356
1958267N18309 1958 90 NA NA ILSA 1958-09-28 00:00:00 TS 24.5000 -61.1000 65 hurdat_atl main 825 825 O_____________ hurdat_atl AL091958 24.5000 -61.1000 HU 65 1 14 350
1958267N18309 1958 90 NA NA ILSA 1958-09-28 03:00:00 TS 25.1701 -61.2775 main 880 880 P_____________ AL091958 25.1701 -61.2775 HU 65 1 15 345
1958267N18309 1958 90 NA NA ILSA 1958-09-28 06:00:00 TS 25.9000 -61.5000 65 989 hurdat_atl main 938 938 O_____________ hurdat_atl AL091958 25.9000 -61.5000 HU 65 989 1 16 345
1958267N18309 1958 90 NA NA ILSA 1958-09-28 09:00:00 TS 26.7276 -61.7368 main 1010 1010 P_____________ AL091958 26.7276 -61.7368 HU 70 986 1 17 348
1958267N18309 1958 90 NA NA ILSA 1958-09-28 12:00:00 TS 27.6000 -61.9000 75 hurdat_atl main 1095 1095 I_____________ hurdat_atl AL091958 27.6000 -61.9000 HU 75 984 1 17 354
1958267N18309 1958 90 NA NA ILSA 1958-09-28 15:00:00 TS 28.4497 -61.9395 main 1179 1179 P_____________ AL091958 28.4497 -61.9395 HU 77 982 1 17 3
1958267N18309 1958 90 NA NA ILSA 1958-09-28 18:00:00 TS 29.3000 -61.8000 80 980 hurdat_atl main 1277 1277 O_____________ hurdat_atl AL091958 29.3000 -61.8000 HU 80 980 1 17 12
1958267N18309 1958 90 NA NA ILSA 1958-09-28 21:00:00 TS 30.1345 -61.5111 main 1371 1371 P_____________ AL091958 30.1345 -61.5111 HU 80 980 1 18 22
1958267N18309 1958 90 NA NA ILSA 1958-09-29 00:00:00 TS 31.0000 -61.0000 80 980 hurdat_atl main 1435 1363 O_____________ hurdat_atl AL091958 31.0000 -61.0000 HU 80 980 1 21 31
1958267N18309 1958 90 NA NA ILSA 1958-09-29 03:00:00 TS 31.9208 -60.2454 main 1366 1293 P_____________ AL091958 31.9208 -60.2454 HU 80 979 1 23 36
1958267N18309 1958 90 NA NA ILSA 1958-09-29 06:00:00 TS 32.9000 -59.4000 80 978 hurdat_atl main 1286 1206 O_____________ hurdat_atl AL091958 32.9000 -59.4000 HU 80 978 1 23 31
1958267N18309 1958 90 NA NA ILSA 1958-09-29 09:00:00 TS 33.9089 -58.8044 main 1206 1138 P_____________ AL091958 33.9089 -58.8044 HU 80 1 24 29
1958267N18309 1958 90 NA NA ILSA 1958-09-29 12:00:00 TS 35.0000 -58.0000 80 hurdat_atl main 1133 1077 O_____________ hurdat_atl AL091958 35.0000 -58.0000 HU 80 1 29 39
1958267N18309 1958 90 NA NA ILSA 1958-09-29 15:00:00 TS 36.1722 -56.5784 main 1069 1010 P_____________ AL091958 36.1722 -56.5784 HU 80 1 35 46
1958267N18309 1958 90 NA NA ILSA 1958-09-29 18:00:00 TS 37.4000 -54.9000 80 hurdat_atl main 1008 900 O_____________ hurdat_atl AL091958 37.4000 -54.9000 HU 80 1 34 46
1958267N18309 1958 90 NA NA ILSA 1958-09-29 21:00:00 TS 38.5263 -53.5235 main 900 763 P_____________ AL091958 38.5263 -53.5235 HU 75 1 35 44
1958267N18309 1958 90 NA NA ILSA 1958-09-30 00:00:00 ET 39.9000 -51.8000 70 hurdat_atl main 753 632 O_____________ hurdat_atl AL091958 39.9000 -51.8000 EX 70 -4 46 46
1958267N18309 1958 90 NA NA ILSA 1958-09-30 03:00:00 ET 41.7382 -49.2315 main 630 604 P_____________ AL091958 41.7382 -49.2315 EX 65 -4 58 48
1958267N18309 1958 90 NA NA ILSA 1958-09-30 06:00:00 ET 43.8000 -46.0000 60 hurdat_atl main 638 O_____________ hurdat_atl AL091958 43.8000 -46.0000 EX 60 -4 62 49

About IBTrACS Database

This database is a web-friendly format of International Best Track Archive for Climate Stewardship (IBTrACS), a global best track data archive curated by NOAA dating back to 1842.

Updated: 2021-10-08